ALE weather

Alpine Casparis Municipal Airport
Alpine, Texas, United States

Public forecast

Using degrees Fahrenheit for public forecast. Weather courtesy of forecast.io.

METAR (pilot weather report)

Retrieved UTC (0 seconds ago):

TAF (pilot weather forecast)

Closest forecast is Fort Stockton Pecos County Airport, 50.9 nm (94.3 km) NE. Retrieved 2019/06/19 06:30 UTC (4 hours ago):

TAF KFST 190527Z 1906/2006 19010KT P6SM SCT250 FM191900 25014G20KT P6SM SKC FM200100 23010KT P6SM SKC